sensor_id;sensor_type;location;lat;lon;timestamp;temperature;humidity
42097;DHT22;27754;45.414;11.084;2023-07-20T00:00:45;23.30;89.70
42097;DHT22;27754;45.414;11.084;2023-07-20T00:03:14;23.30;90.40
42097;DHT22;27754;45.414;11.084;2023-07-20T00:05:46;23.20;89.80
42097;DHT22;27754;45.414;11.084;2023-07-20T00:08:13;23.00;90.50
42097;DHT22;27754;45.414;11.084;2023-07-20T00:10:41;23.00;91.00
42097;DHT22;27754;45.414;11.084;2023-07-20T00:13:09;23.00;91.10
42097;DHT22;27754;45.414;11.084;2023-07-20T00:15:36;23.10;91.00
42097;DHT22;27754;45.414;11.084;2023-07-20T00:18:04;23.30;90.70
42097;DHT22;27754;45.414;11.084;2023-07-20T00:20:32;23.30;90.80
42097;DHT22;27754;45.414;11.084;2023-07-20T00:22:59;23.30;90.80
42097;DHT22;27754;45.414;11.084;2023-07-20T00:25:26;23.30;91.60
42097;DHT22;27754;45.414;11.084;2023-07-20T00:27:53;23.30;91.70
42097;DHT22;27754;45.414;11.084;2023-07-20T00:30:20;23.20;91.60
42097;DHT22;27754;45.414;11.084;2023-07-20T00:32:47;23.20;91.90
42097;DHT22;27754;45.414;11.084;2023-07-20T00:35:15;23.20;92.00
42097;DHT22;27754;45.414;11.084;2023-07-20T00:37:42;23.20;91.50
42097;DHT22;27754;45.414;11.084;2023-07-20T00:40:09;23.00;92.00
42097;DHT22;27754;45.414;11.084;2023-07-20T00:42:36;22.90;92.20
42097;DHT22;27754;45.414;11.084;2023-07-20T00:45:04;23.10;92.60
42097;DHT22;27754;45.414;11.084;2023-07-20T00:47:31;23.10;93.30
42097;DHT22;27754;45.414;11.084;2023-07-20T00:49:59;23.00;93.30
42097;DHT22;27754;45.414;11.084;2023-07-20T00:52:27;22.90;93.00
42097;DHT22;27754;45.414;11.084;2023-07-20T00:54:56;23.00;92.70
42097;DHT22;27754;45.414;11.084;2023-07-20T00:57:24;23.00;92.60
42097;DHT22;27754;45.414;11.084;2023-07-20T00:59:52;22.90;92.20
42097;DHT22;27754;45.414;11.084;2023-07-20T01:02:19;23.00;91.70
42097;DHT22;27754;45.414;11.084;2023-07-20T01:04:46;23.00;91.20
42097;DHT22;27754;45.414;11.084;2023-07-20T01:10:33;23.10;90.90
42097;DHT22;27754;45.414;11.084;2023-07-20T01:13:03;22.90;91.00
42097;DHT22;27754;45.414;11.084;2023-07-20T01:15:36;22.90;91.20
42097;DHT22;27754;45.414;11.084;2023-07-20T01:18:03;23.00;90.90
42097;DHT22;27754;45.414;11.084;2023-07-20T01:20:33;23.00;90.60
42097;DHT22;27754;45.414;11.084;2023-07-20T01:31:29;22.80;92.10
42097;DHT22;27754;45.414;11.084;2023-07-20T01:33:58;22.80;92.10
42097;DHT22;27754;45.414;11.084;2023-07-20T01:36:28;22.90;91.70
42097;DHT22;27754;45.414;11.084;2023-07-20T01:38:56;22.90;91.50
42097;DHT22;27754;45.414;11.084;2023-07-20T01:41:23;22.90;91.20
42097;DHT22;27754;45.414;11.084;2023-07-20T01:43:50;22.80;91.20
42097;DHT22;27754;45.414;11.084;2023-07-20T01:46:17;22.80;91.60
42097;DHT22;27754;45.414;11.084;2023-07-20T01:48:44;22.80;91.70
42097;DHT22;27754;45.414;11.084;2023-07-20T01:51:11;22.90;91.80
42097;DHT22;27754;45.414;11.084;2023-07-20T01:53:39;22.90;92.10
42097;DHT22;27754;45.414;11.084;2023-07-20T01:56:06;22.90;92.00
42097;DHT22;27754;45.414;11.084;2023-07-20T01:58:34;22.90;91.80
42097;DHT22;27754;45.414;11.084;2023-07-20T02:01:01;22.90;92.00
42097;DHT22;27754;45.414;11.084;2023-07-20T02:03:29;23.00;91.70
42097;DHT22;27754;45.414;11.084;2023-07-20T02:05:56;22.90;91.90
42097;DHT22;27754;45.414;11.084;2023-07-20T02:08:25;22.90;91.70
42097;DHT22;27754;45.414;11.084;2023-07-20T02:10:55;22.90;92.00
42097;DHT22;27754;45.414;11.084;2023-07-20T02:13:22;22.90;92.20
42097;DHT22;27754;45.414;11.084;2023-07-20T02:15:49;23.00;92.20
42097;DHT22;27754;45.414;11.084;2023-07-20T02:18:16;23.00;92.20
42097;DHT22;27754;45.414;11.084;2023-07-20T02:20:43;23.00;92.50
42097;DHT22;27754;45.414;11.084;2023-07-20T02:23:10;23.00;92.30
42097;DHT22;27754;45.414;11.084;2023-07-20T02:25:38;23.00;92.30
42097;DHT22;27754;45.414;11.084;2023-07-20T02:28:07;23.00;92.20
42097;DHT22;27754;45.414;11.084;2023-07-20T02:30:38;23.00;92.00
42097;DHT22;27754;45.414;11.084;2023-07-20T02:33:07;23.00;92.10
42097;DHT22;27754;45.414;11.084;2023-07-20T02:35:34;23.00;91.90
42097;DHT22;27754;45.414;11.084;2023-07-20T02:38:01;23.00;91.60
42097;DHT22;27754;45.414;11.084;2023-07-20T02:40:28;23.00;91.20
42097;DHT22;27754;45.414;11.084;2023-07-20T02:42:55;22.80;91.20
42097;DHT22;27754;45.414;11.084;2023-07-20T02:45:22;22.80;91.70
42097;DHT22;27754;45.414;11.084;2023-07-20T02:47:51;22.80;91.50
42097;DHT22;27754;45.414;11.084;2023-07-20T02:50:18;22.90;91.20
42097;DHT22;27754;45.414;11.084;2023-07-20T02:52:45;22.90;91.20
42097;DHT22;27754;45.414;11.084;2023-07-20T02:55:12;22.90;91.30
42097;DHT22;27754;45.414;11.084;2023-07-20T02:57:39;22.80;91.60
42097;DHT22;27754;45.414;11.084;2023-07-20T03:00:07;22.80;91.50
42097;DHT22;27754;45.414;11.084;2023-07-20T03:02:34;22.70;91.80
42097;DHT22;27754;45.414;11.084;2023-07-20T03:05:01;22.60;92.20
42097;DHT22;27754;45.414;11.084;2023-07-20T03:07:32;22.50;92.40
42097;DHT22;27754;45.414;11.084;2023-07-20T03:09:59;22.60;92.70
42097;DHT22;27754;45.414;11.084;2023-07-20T03:12:27;22.70;93.00
42097;DHT22;27754;45.414;11.084;2023-07-20T03:14:54;22.70;92.70
42097;DHT22;27754;45.414;11.084;2023-07-20T03:17:22;22.60;92.60
42097;DHT22;27754;45.414;11.084;2023-07-20T03:19:50;22.70;92.60
42097;DHT22;27754;45.414;11.084;2023-07-20T03:22:17;22.60;92.70
42097;DHT22;27754;45.414;11.084;2023-07-20T03:24:45;22.60;92.60
42097;DHT22;27754;45.414;11.084;2023-07-20T03:27:12;22.60;92.60
42097;DHT22;27754;45.414;11.084;2023-07-20T03:29:39;22.60;92.60
42097;DHT22;27754;45.414;11.084;2023-07-20T03:32:06;22.70;92.70
42097;DHT22;27754;45.414;11.084;2023-07-20T03:34:34;22.70;92.80
42097;DHT22;27754;45.414;11.084;2023-07-20T03:37:01;22.70;92.50
42097;DHT22;27754;45.414;11.084;2023-07-20T03:39:28;22.50;92.60
42097;DHT22;27754;45.414;11.084;2023-07-20T03:41:55;22.60;92.40
42097;DHT22;27754;45.414;11.084;2023-07-20T03:44:21;22.70;92.10
42097;DHT22;27754;45.414;11.084;2023-07-20T03:46:49;22.60;92.20
42097;DHT22;27754;45.414;11.084;2023-07-20T03:49:16;22.50;92.80
42097;DHT22;27754;45.414;11.084;2023-07-20T03:51:43;22.60;92.90
42097;DHT22;27754;45.414;11.084;2023-07-20T03:54:10;22.60;92.70
42097;DHT22;27754;45.414;11.084;2023-07-20T03:56:37;22.60;92.30
42097;DHT22;27754;45.414;11.084;2023-07-20T03:59:04;22.60;92.00
42097;DHT22;27754;45.414;11.084;2023-07-20T04:01:31;22.80;92.10
42097;DHT22;27754;45.414;11.084;2023-07-20T04:04:07;22.80;91.30
42097;DHT22;27754;45.414;11.084;2023-07-20T04:06:35;22.70;90.70
42097;DHT22;27754;45.414;11.084;2023-07-20T04:09:03;22.70;90.30
42097;DHT22;27754;45.414;11.084;2023-07-20T04:11:31;22.80;90.00
42097;DHT22;27754;45.414;11.084;2023-07-20T04:13:59;23.00;89.80
42097;DHT22;27754;45.414;11.084;2023-07-20T04:16:26;23.10;89.20
42097;DHT22;27754;45.414;11.084;2023-07-20T04:18:57;23.10;89.00
42097;DHT22;27754;45.414;11.084;2023-07-20T04:21:28;23.10;89.20
42097;DHT22;27754;45.414;11.084;2023-07-20T04:23:55;23.10;89.30
42097;DHT22;27754;45.414;11.084;2023-07-20T04:26:23;23.10;89.00
42097;DHT22;27754;45.414;11.084;2023-07-20T04:28:51;23.10;88.20
42097;DHT22;27754;45.414;11.084;2023-07-20T04:31:33;23.10;88.40
42097;DHT22;27754;45.414;11.084;2023-07-20T04:34:02;23.60;87.40
42097;DHT22;27754;45.414;11.084;2023-07-20T04:36:29;24.10;86.30
42097;DHT22;27754;45.414;11.084;2023-07-20T04:38:57;24.60;84.70
42097;DHT22;27754;45.414;11.084;2023-07-20T04:41:24;25.00;82.70
42097;DHT22;27754;45.414;11.084;2023-07-20T04:43:55;25.20;81.70
42097;DHT22;27754;45.414;11.084;2023-07-20T04:46:26;25.30;81.90
42097;DHT22;27754;45.414;11.084;2023-07-20T04:48:54;25.10;82.40
42097;DHT22;27754;45.414;11.084;2023-07-20T04:51:23;24.80;81.20
42097;DHT22;27754;45.414;11.084;2023-07-20T04:53:53;24.90;82.10
42097;DHT22;27754;45.414;11.084;2023-07-20T04:56:21;24.80;81.70
42097;DHT22;27754;45.414;11.084;2023-07-20T04:58:51;25.00;82.00
42097;DHT22;27754;45.414;11.084;2023-07-20T05:01:18;25.20;81.10
42097;DHT22;27754;45.414;11.084;2023-07-20T05:03:46;25.30;80.80
42097;DHT22;27754;45.414;11.084;2023-07-20T05:06:13;25.00;81.70
42097;DHT22;27754;45.414;11.084;2023-07-20T05:08:41;24.90;82.50
42097;DHT22;27754;45.414;11.084;2023-07-20T05:11:08;25.00;82.00
42097;DHT22;27754;45.414;11.084;2023-07-20T05:13:35;25.00;80.20
42097;DHT22;27754;45.414;11.084;2023-07-20T05:16:02;25.10;80.20
42097;DHT22;27754;45.414;11.084;2023-07-20T05:18:30;25.30;80.00
42097;DHT22;27754;45.414;11.084;2023-07-20T05:20:59;25.60;78.30
42097;DHT22;27754;45.414;11.084;2023-07-20T05:23:26;25.90;77.90
42097;DHT22;27754;45.414;11.084;2023-07-20T05:25:58;26.20;77.60
42097;DHT22;27754;45.414;11.084;2023-07-20T05:28:28;26.50;77.00
42097;DHT22;27754;45.414;11.084;2023-07-20T05:30:55;26.70;76.70
42097;DHT22;27754;45.414;11.084;2023-07-20T05:33:22;26.60;76.30
42097;DHT22;27754;45.414;11.084;2023-07-20T05:35:49;26.40;77.70
42097;DHT22;27754;45.414;11.084;2023-07-20T05:38:17;26.80;78.00
42097;DHT22;27754;45.414;11.084;2023-07-20T05:40:44;27.10;76.40
42097;DHT22;27754;45.414;11.084;2023-07-20T05:43:12;27.20;75.90
42097;DHT22;27754;45.414;11.084;2023-07-20T05:45:42;27.30;74.90
42097;DHT22;27754;45.414;11.084;2023-07-20T05:48:10;27.40;74.50
42097;DHT22;27754;45.414;11.084;2023-07-20T05:50:42;27.60;74.20
42097;DHT22;27754;45.414;11.084;2023-07-20T05:53:09;27.70;74.80
42097;DHT22;27754;45.414;11.084;2023-07-20T05:55:36;27.80;74.20
42097;DHT22;27754;45.414;11.084;2023-07-20T05:58:03;27.80;73.90
42097;DHT22;27754;45.414;11.084;2023-07-20T06:00:31;27.80;73.80
42097;DHT22;27754;45.414;11.084;2023-07-20T06:02:58;28.00;73.10
42097;DHT22;27754;45.414;11.084;2023-07-20T06:05:25;28.10;72.10
42097;DHT22;27754;45.414;11.084;2023-07-20T06:07:55;28.10;73.20
42097;DHT22;27754;45.414;11.084;2023-07-20T06:10:24;28.00;72.20
42097;DHT22;27754;45.414;11.084;2023-07-20T06:12:51;28.10;71.60
42097;DHT22;27754;45.414;11.084;2023-07-20T06:15:48;28.10;71.90
42097;DHT22;27754;45.414;11.084;2023-07-20T06:18:15;28.30;70.30
42097;DHT22;27754;45.414;11.084;2023-07-20T06:20:42;28.30;72.00
42097;DHT22;27754;45.414;11.084;2023-07-20T06:23:09;28.20;71.80
42097;DHT22;27754;45.414;11.084;2023-07-20T06:25:36;28.40;71.40
42097;DHT22;27754;45.414;11.084;2023-07-20T06:28:03;28.20;71.40
42097;DHT22;27754;45.414;11.084;2023-07-20T06:30:33;28.60;72.30
42097;DHT22;27754;45.414;11.084;2023-07-20T06:33:01;28.80;71.20
42097;DHT22;27754;45.414;11.084;2023-07-20T06:35:28;28.80;72.30
42097;DHT22;27754;45.414;11.084;2023-07-20T06:37:55;29.00;71.70
42097;DHT22;27754;45.414;11.084;2023-07-20T06:40:22;29.20;71.20
42097;DHT22;27754;45.414;11.084;2023-07-20T06:42:52;29.30;70.00
42097;DHT22;27754;45.414;11.084;2023-07-20T06:45:22;29.10;71.30
42097;DHT22;27754;45.414;11.084;2023-07-20T06:47:49;29.30;71.90
42097;DHT22;27754;45.414;11.084;2023-07-20T06:50:16;29.20;70.50
42097;DHT22;27754;45.414;11.084;2023-07-20T06:52:44;29.20;72.30
42097;DHT22;27754;45.414;11.084;2023-07-20T06:55:11;29.30;70.20
42097;DHT22;27754;45.414;11.084;2023-07-20T06:57:38;29.20;71.30
42097;DHT22;27754;45.414;11.084;2023-07-20T07:00:05;29.00;73.50
42097;DHT22;27754;45.414;11.084;2023-07-20T07:02:33;28.60;72.30
42097;DHT22;27754;45.414;11.084;2023-07-20T07:05:02;28.20;74.40
42097;DHT22;27754;45.414;11.084;2023-07-20T07:07:46;28.20;75.60
42097;DHT22;27754;45.414;11.084;2023-07-20T07:10:13;28.20;74.30
42097;DHT22;27754;45.414;11.084;2023-07-20T07:12:40;28.30;74.10
42097;DHT22;27754;45.414;11.084;2023-07-20T07:15:08;28.60;75.30
42097;DHT22;27754;45.414;11.084;2023-07-20T07:17:37;28.50;74.00
42097;DHT22;27754;45.414;11.084;2023-07-20T07:20:06;28.60;71.60
42097;DHT22;27754;45.414;11.084;2023-07-20T07:22:37;28.60;71.50
42097;DHT22;27754;45.414;11.084;2023-07-20T07:25:05;28.80;73.50
42097;DHT22;27754;45.414;11.084;2023-07-20T07:27:32;28.80;72.60
42097;DHT22;27754;45.414;11.084;2023-07-20T07:29:59;28.80;72.00
42097;DHT22;27754;45.414;11.084;2023-07-20T07:32:26;28.60;72.50
42097;DHT22;27754;45.414;11.084;2023-07-20T07:34:53;28.70;73.60
42097;DHT22;27754;45.414;11.084;2023-07-20T07:37:20;28.80;69.00
42097;DHT22;27754;45.414;11.084;2023-07-20T07:39:47;28.80;69.60
42097;DHT22;27754;45.414;11.084;2023-07-20T07:42:14;29.00;67.60
42097;DHT22;27754;45.414;11.084;2023-07-20T07:44:41;29.00;69.10
42097;DHT22;27754;45.414;11.084;2023-07-20T07:47:08;28.90;68.50
42097;DHT22;27754;45.414;11.084;2023-07-20T07:49:35;29.00;71.20
42097;DHT22;27754;45.414;11.084;2023-07-20T07:52:02;29.20;70.80
42097;DHT22;27754;45.414;11.084;2023-07-20T07:54:30;29.20;69.50
42097;DHT22;27754;45.414;11.084;2023-07-20T07:56:57;29.30;66.90
42097;DHT22;27754;45.414;11.084;2023-07-20T07:59:24;29.30;67.90
42097;DHT22;27754;45.414;11.084;2023-07-20T08:01:51;29.30;68.00
42097;DHT22;27754;45.414;11.084;2023-07-20T08:04:18;29.40;69.70
42097;DHT22;27754;45.414;11.084;2023-07-20T08:06:45;29.40;68.30
42097;DHT22;27754;45.414;11.084;2023-07-20T08:09:12;29.60;69.10
42097;DHT22;27754;45.414;11.084;2023-07-20T08:11:39;30.00;68.10
42097;DHT22;27754;45.414;11.084;2023-07-20T08:14:06;30.30;67.00
42097;DHT22;27754;45.414;11.084;2023-07-20T08:16:34;30.60;65.30
42097;DHT22;27754;45.414;11.084;2023-07-20T08:19:02;30.30;67.50
42097;DHT22;27754;45.414;11.084;2023-07-20T08:21:29;30.30;66.70
42097;DHT22;27754;45.414;11.084;2023-07-20T08:23:56;30.10;67.20
42097;DHT22;27754;45.414;11.084;2023-07-20T08:26:23;30.20;67.20
42097;DHT22;27754;45.414;11.084;2023-07-20T08:28:51;29.60;68.20
42097;DHT22;27754;45.414;11.084;2023-07-20T08:31:18;29.70;70.40
42097;DHT22;27754;45.414;11.084;2023-07-20T08:33:45;29.80;68.00
42097;DHT22;27754;45.414;11.084;2023-07-20T08:36:12;29.80;69.00
42097;DHT22;27754;45.414;11.084;2023-07-20T08:38:39;29.90;69.30
42097;DHT22;27754;45.414;11.084;2023-07-20T08:41:07;30.00;69.70
42097;DHT22;27754;45.414;11.084;2023-07-20T08:43:36;29.70;68.10
42097;DHT22;27754;45.414;11.084;2023-07-20T08:46:04;30.10;67.90
42097;DHT22;27754;45.414;11.084;2023-07-20T08:48:32;30.60;66.80
42097;DHT22;27754;45.414;11.084;2023-07-20T08:51:01;30.90;66.00
42097;DHT22;27754;45.414;11.084;2023-07-20T08:53:30;30.90;65.30
42097;DHT22;27754;45.414;11.084;2023-07-20T08:55:59;30.70;67.70
42097;DHT22;27754;45.414;11.084;2023-07-20T08:58:27;30.30;67.20
42097;DHT22;27754;45.414;11.084;2023-07-20T09:00:55;30.20;68.50
42097;DHT22;27754;45.414;11.084;2023-07-20T09:03:24;30.00;66.90
42097;DHT22;27754;45.414;11.084;2023-07-20T09:05:51;30.20;66.90
42097;DHT22;27754;45.414;11.084;2023-07-20T09:08:19;30.40;69.10
42097;DHT22;27754;45.414;11.084;2023-07-20T09:10:46;30.40;67.80
42097;DHT22;27754;45.414;11.084;2023-07-20T09:13:16;30.30;66.90
42097;DHT22;27754;45.414;11.084;2023-07-20T09:15:47;30.40;65.20
42097;DHT22;27754;45.414;11.084;2023-07-20T09:18:25;30.30;65.40
42097;DHT22;27754;45.414;11.084;2023-07-20T09:20:52;30.70;66.30
42097;DHT22;27754;45.414;11.084;2023-07-20T09:23:38;30.60;65.40
42097;DHT22;27754;45.414;11.084;2023-07-20T09:26:13;30.60;66.60
42097;DHT22;27754;45.414;11.084;2023-07-20T09:28:43;30.40;67.70
42097;DHT22;27754;45.414;11.084;2023-07-20T09:31:18;30.30;65.10
42097;DHT22;27754;45.414;11.084;2023-07-20T09:33:47;30.20;67.70
42097;DHT22;27754;45.414;11.084;2023-07-20T09:36:17;30.40;67.20
42097;DHT22;27754;45.414;11.084;2023-07-20T09:39:04;30.40;67.40
42097;DHT22;27754;45.414;11.084;2023-07-20T09:41:41;30.90;65.80
42097;DHT22;27754;45.414;11.084;2023-07-20T09:44:14;31.10;64.90
42097;DHT22;27754;45.414;11.084;2023-07-20T09:46:47;31.10;64.70
42097;DHT22;27754;45.414;11.084;2023-07-20T09:49:18;31.30;63.00
42097;DHT22;27754;45.414;11.084;2023-07-20T09:51:48;31.20;63.90
42097;DHT22;27754;45.414;11.084;2023-07-20T09:54:17;30.90;64.10
42097;DHT22;27754;45.414;11.084;2023-07-20T09:56:45;30.70;63.90
42097;DHT22;27754;45.414;11.084;2023-07-20T09:59:14;30.70;61.70
42097;DHT22;27754;45.414;11.084;2023-07-20T10:01:43;30.80;64.50
42097;DHT22;27754;45.414;11.084;2023-07-20T10:04:11;30.70;64.40
42097;DHT22;27754;45.414;11.084;2023-07-20T10:06:42;30.80;65.50
42097;DHT22;27754;45.414;11.084;2023-07-20T10:09:10;30.80;65.30
42097;DHT22;27754;45.414;11.084;2023-07-20T10:11:42;30.90;64.50
42097;DHT22;27754;45.414;11.084;2023-07-20T10:14:11;30.90;64.00
42097;DHT22;27754;45.414;11.084;2023-07-20T10:16:44;30.90;65.30
42097;DHT22;27754;45.414;11.084;2023-07-20T10:22:26;31.20;65.10
42097;DHT22;27754;45.414;11.084;2023-07-20T10:24:54;31.50;63.40
42097;DHT22;27754;45.414;11.084;2023-07-20T10:27:21;31.60;63.40
42097;DHT22;27754;45.414;11.084;2023-07-20T10:29:48;31.70;62.70
42097;DHT22;27754;45.414;11.084;2023-07-20T10:32:17;31.20;63.90
42097;DHT22;27754;45.414;11.084;2023-07-20T10:34:52;31.30;64.10
42097;DHT22;27754;45.414;11.084;2023-07-20T10:37:55;31.30;64.20
42097;DHT22;27754;45.414;11.084;2023-07-20T10:40:28;31.30;64.50
42097;DHT22;27754;45.414;11.084;2023-07-20T10:43:03;31.30;61.70
42097;DHT22;27754;45.414;11.084;2023-07-20T10:45:37;31.30;63.10
42097;DHT22;27754;45.414;11.084;2023-07-20T10:48:40;31.30;63.70
42097;DHT22;27754;45.414;11.084;2023-07-20T10:51:11;31.10;62.20
42097;DHT22;27754;45.414;11.084;2023-07-20T10:53:41;30.80;61.20
42097;DHT22;27754;45.414;11.084;2023-07-20T10:56:12;30.70;63.60
42097;DHT22;27754;45.414;11.084;2023-07-20T10:58:40;30.90;63.20
42097;DHT22;27754;45.414;11.084;2023-07-20T11:01:14;31.10;62.50
42097;DHT22;27754;45.414;11.084;2023-07-20T11:03:43;31.30;62.60
42097;DHT22;27754;45.414;11.084;2023-07-20T11:08:56;31.20;60.90
42097;DHT22;27754;45.414;11.084;2023-07-20T11:11:28;31.00;62.90
42097;DHT22;27754;45.414;11.084;2023-07-20T11:13:57;31.00;62.80
42097;DHT22;27754;45.414;11.084;2023-07-20T11:16:46;31.10;64.20
42097;DHT22;27754;45.414;11.084;2023-07-20T11:21:51;31.60;62.40
42097;DHT22;27754;45.414;11.084;2023-07-20T11:24:30;31.60;58.60
42097;DHT22;27754;45.414;11.084;2023-07-20T11:26:57;31.60;61.00
42097;DHT22;27754;45.414;11.084;2023-07-20T11:29:25;31.50;59.20
42097;DHT22;27754;45.414;11.084;2023-07-20T11:31:56;31.30;60.50
42097;DHT22;27754;45.414;11.084;2023-07-20T11:34:24;31.20;60.20
42097;DHT22;27754;45.414;11.084;2023-07-20T11:36:51;31.20;62.00
42097;DHT22;27754;45.414;11.084;2023-07-20T11:39:22;31.30;62.60
42097;DHT22;27754;45.414;11.084;2023-07-20T11:41:54;31.60;63.10
42097;DHT22;27754;45.414;11.084;2023-07-20T11:44:23;31.70;61.20
42097;DHT22;27754;45.414;11.084;2023-07-20T11:47:14;31.50;61.90
42097;DHT22;27754;45.414;11.084;2023-07-20T11:49:42;31.60;61.50
42097;DHT22;27754;45.414;11.084;2023-07-20T11:52:15;31.80;62.60
42097;DHT22;27754;45.414;11.084;2023-07-20T11:54:43;31.80;62.30
42097;DHT22;27754;45.414;11.084;2023-07-20T11:57:19;31.80;60.40
42097;DHT22;27754;45.414;11.084;2023-07-20T11:59:56;31.90;60.50
42097;DHT22;27754;45.414;11.084;2023-07-20T12:02:30;31.80;58.60
42097;DHT22;27754;45.414;11.084;2023-07-20T12:04:58;31.90;60.70
42097;DHT22;27754;45.414;11.084;2023-07-20T12:07:27;32.00;61.80
42097;DHT22;27754;45.414;11.084;2023-07-20T12:10:07;32.10;62.30
42097;DHT22;27754;45.414;11.084;2023-07-20T12:12:38;32.00;59.30
42097;DHT22;27754;45.414;11.084;2023-07-20T12:17:52;31.80;58.90
42097;DHT22;27754;45.414;11.084;2023-07-20T12:20:34;31.80;63.20
42097;DHT22;27754;45.414;11.084;2023-07-20T12:23:10;31.80;63.30
42097;DHT22;27754;45.414;11.084;2023-07-20T12:25:41;31.80;62.90
42097;DHT22;27754;45.414;11.084;2023-07-20T12:28:09;31.60;58.80
42097;DHT22;27754;45.414;11.084;2023-07-20T12:30:37;31.80;61.20
42097;DHT22;27754;45.414;11.084;2023-07-20T12:33:05;31.90;61.70
42097;DHT22;27754;45.414;11.084;2023-07-20T12:35:33;31.90;61.30
42097;DHT22;27754;45.414;11.084;2023-07-20T12:38:01;31.90;63.00
42097;DHT22;27754;45.414;11.084;2023-07-20T12:40:28;31.80;61.70
42097;DHT22;27754;45.414;11.084;2023-07-20T12:42:55;31.90;60.20
42097;DHT22;27754;45.414;11.084;2023-07-20T12:45:22;31.90;59.30
42097;DHT22;27754;45.414;11.084;2023-07-20T12:47:49;31.60;61.80
42097;DHT22;27754;45.414;11.084;2023-07-20T12:50:16;31.80;62.60
42097;DHT22;27754;45.414;11.084;2023-07-20T12:52:43;31.70;63.00
42097;DHT22;27754;45.414;11.084;2023-07-20T12:55:10;31.80;60.40
42097;DHT22;27754;45.414;11.084;2023-07-20T12:57:37;31.60;60.70
42097;DHT22;27754;45.414;11.084;2023-07-20T13:00:06;31.80;60.40
42097;DHT22;27754;45.414;11.084;2023-07-20T13:02:37;31.80;60.60
42097;DHT22;27754;45.414;11.084;2023-07-20T13:05:05;31.90;59.90
42097;DHT22;27754;45.414;11.084;2023-07-20T13:07:34;31.80;59.20
42097;DHT22;27754;45.414;11.084;2023-07-20T13:10:04;32.00;62.20
42097;DHT22;27754;45.414;11.084;2023-07-20T13:12:33;32.20;62.50
42097;DHT22;27754;45.414;11.084;2023-07-20T13:15:06;32.40;61.70
42097;DHT22;27754;45.414;11.084;2023-07-20T13:17:37;32.40;59.80
42097;DHT22;27754;45.414;11.084;2023-07-20T13:20:07;32.50;59.90
42097;DHT22;27754;45.414;11.084;2023-07-20T13:22:38;32.50;59.70
42097;DHT22;27754;45.414;11.084;2023-07-20T13:25:06;32.50;59.90
42097;DHT22;27754;45.414;11.084;2023-07-20T13:27:33;32.60;59.70
42097;DHT22;27754;45.414;11.084;2023-07-20T13:30:01;32.50;59.10
42097;DHT22;27754;45.414;11.084;2023-07-20T13:32:33;32.30;61.00
42097;DHT22;27754;45.414;11.084;2023-07-20T13:35:01;32.30;58.50
42097;DHT22;27754;45.414;11.084;2023-07-20T13:37:28;32.30;57.60
42097;DHT22;27754;45.414;11.084;2023-07-20T13:39:55;32.50;56.90
42097;DHT22;27754;45.414;11.084;2023-07-20T13:42:23;32.30;57.60
42097;DHT22;27754;45.414;11.084;2023-07-20T13:44:50;32.20;56.40
42097;DHT22;27754;45.414;11.084;2023-07-20T13:47:17;32.00;60.70
42097;DHT22;27754;45.414;11.084;2023-07-20T13:49:48;32.20;60.70
42097;DHT22;27754;45.414;11.084;2023-07-20T13:52:16;32.60;59.10
42097;DHT22;27754;45.414;11.084;2023-07-20T13:54:45;32.50;58.30
42097;DHT22;27754;45.414;11.084;2023-07-20T13:57:18;32.60;58.80
42097;DHT22;27754;45.414;11.084;2023-07-20T13:59:47;32.80;59.50
42097;DHT22;27754;45.414;11.084;2023-07-20T14:02:15;32.60;59.80
42097;DHT22;27754;45.414;11.084;2023-07-20T14:04:46;32.30;60.10
42097;DHT22;27754;45.414;11.084;2023-07-20T14:07:16;32.50;60.00
42097;DHT22;27754;45.414;11.084;2023-07-20T14:09:43;32.70;59.80
42097;DHT22;27754;45.414;11.084;2023-07-20T14:12:13;32.80;59.20
42097;DHT22;27754;45.414;11.084;2023-07-20T14:14:44;32.90;59.20
42097;DHT22;27754;45.414;11.084;2023-07-20T14:17:11;32.90;58.70
42097;DHT22;27754;45.414;11.084;2023-07-20T14:19:38;32.80;59.40
42097;DHT22;27754;45.414;11.084;2023-07-20T14:22:05;32.80;56.70
42097;DHT22;27754;45.414;11.084;2023-07-20T14:24:32;32.80;58.20
42097;DHT22;27754;45.414;11.084;2023-07-20T14:27:00;32.70;57.20
42097;DHT22;27754;45.414;11.084;2023-07-20T14:29:28;32.40;58.70
42097;DHT22;27754;45.414;11.084;2023-07-20T14:31:58;32.60;57.50
42097;DHT22;27754;45.414;11.084;2023-07-20T14:34:25;32.80;57.10
42097;DHT22;27754;45.414;11.084;2023-07-20T14:36:53;33.00;57.40
42097;DHT22;27754;45.414;11.084;2023-07-20T14:39:20;33.10;56.80
42097;DHT22;27754;45.414;11.084;2023-07-20T14:41:49;33.10;56.30
42097;DHT22;27754;45.414;11.084;2023-07-20T14:44:16;33.00;56.40
42097;DHT22;27754;45.414;11.084;2023-07-20T14:46:43;32.70;57.80
42097;DHT22;27754;45.414;11.084;2023-07-20T14:49:26;32.70;58.30
42097;DHT22;27754;45.414;11.084;2023-07-20T14:51:53;32.50;58.40
42097;DHT22;27754;45.414;11.084;2023-07-20T14:54:21;32.80;56.80
42097;DHT22;27754;45.414;11.084;2023-07-20T14:56:51;32.70;57.70
42097;DHT22;27754;45.414;11.084;2023-07-20T14:59:20;32.70;57.00
42097;DHT22;27754;45.414;11.084;2023-07-20T15:01:47;32.50;55.60
42097;DHT22;27754;45.414;11.084;2023-07-20T15:04:15;32.40;57.20
42097;DHT22;27754;45.414;11.084;2023-07-20T15:06:42;32.60;57.00
42097;DHT22;27754;45.414;11.084;2023-07-20T15:09:09;32.80;54.50
42097;DHT22;27754;45.414;11.084;2023-07-20T15:11:36;32.90;54.20
42097;DHT22;27754;45.414;11.084;2023-07-20T15:14:03;32.90;54.80
42097;DHT22;27754;45.414;11.084;2023-07-20T15:16:31;32.90;54.50
42097;DHT22;27754;45.414;11.084;2023-07-20T15:18:58;32.70;55.50
42097;DHT22;27754;45.414;11.084;2023-07-20T15:21:25;32.70;55.20
42097;DHT22;27754;45.414;11.084;2023-07-20T15:23:57;32.50;56.10
42097;DHT22;27754;45.414;11.084;2023-07-20T15:26:24;32.80;55.10
42097;DHT22;27754;45.414;11.084;2023-07-20T15:28:52;32.80;54.90
42097;DHT22;27754;45.414;11.084;2023-07-20T15:31:19;32.60;54.20
42097;DHT22;27754;45.414;11.084;2023-07-20T15:34:06;32.40;54.20
42097;DHT22;27754;45.414;11.084;2023-07-20T15:36:33;32.80;54.00
42097;DHT22;27754;45.414;11.084;2023-07-20T15:39:01;32.80;54.90
42097;DHT22;27754;45.414;11.084;2023-07-20T15:41:27;32.80;55.30
42097;DHT22;27754;45.414;11.084;2023-07-20T15:43:56;32.90;55.20
42097;DHT22;27754;45.414;11.084;2023-07-20T15:48:51;32.70;56.10
42097;DHT22;27754;45.414;11.084;2023-07-20T15:51:18;32.60;55.20